createdAt,value
2022-10-22T00:00:00.356Z,16.30
2022-10-22T00:02:27.905Z,16.30
2022-10-22T00:04:57.122Z,16.30
2022-10-22T00:07:24.513Z,16.20
2022-10-22T00:09:51.439Z,16.20
2022-10-22T00:12:18.566Z,16.20
2022-10-22T00:14:45.640Z,16.20
2022-10-22T00:17:12.558Z,16.20
2022-10-22T00:19:40.242Z,16.20
2022-10-22T00:22:08.572Z,16.30
2022-10-22T00:24:37.403Z,16.20
2022-10-22T00:27:05.347Z,16.10
2022-10-22T00:29:32.767Z,16.10
2022-10-22T00:31:59.552Z,16.10
2022-10-22T00:34:26.407Z,16.10
2022-10-22T00:36:53.732Z,16.10
2022-10-22T00:39:23.254Z,16.20
2022-10-22T00:41:51.928Z,16.20
2022-10-22T00:44:56.458Z,16.10
2022-10-22T00:47:25.070Z,16.20
2022-10-22T00:49:53.790Z,16.20
2022-10-22T00:52:21.508Z,16.30
2022-10-22T00:54:48.827Z,16.30
2022-10-22T00:57:17.136Z,16.20
2022-10-22T00:59:44.064Z,16.30
2022-10-22T01:02:10.949Z,16.30
2022-10-22T01:04:37.899Z,16.30
2022-10-22T01:07:04.953Z,16.20
2022-10-22T01:09:43.364Z,16.20
2022-10-22T01:12:21.986Z,16.30
2022-10-22T01:14:51.469Z,16.30
2022-10-22T01:17:47.899Z,16.30
2022-10-22T01:20:33.471Z,16.30
2022-10-22T01:23:19.149Z,16.30
2022-10-22T01:26:01.393Z,16.30
2022-10-22T01:29:00.456Z,16.30
2022-10-22T01:31:32.465Z,16.30
2022-10-22T01:34:00.996Z,16.30
2022-10-22T01:36:33.281Z,16.30
2022-10-22T01:39:02.059Z,16.30
2022-10-22T01:41:29.686Z,16.30
2022-10-22T01:43:56.730Z,16.30
2022-10-22T01:46:26.293Z,16.30
2022-10-22T01:49:14.264Z,16.20
2022-10-22T01:51:43.836Z,16.20
2022-10-22T01:54:30.927Z,16.20
2022-10-22T01:57:09.360Z,16.10
2022-10-22T01:59:51.556Z,16.20
2022-10-22T02:02:33.069Z,16.20
2022-10-22T02:05:21.037Z,16.10
2022-10-22T02:07:52.883Z,16.20
2022-10-22T02:10:20.224Z,16.10
2022-10-22T02:12:54.761Z,16.00
2022-10-22T02:15:24.708Z,16.10
2022-10-22T02:17:53.283Z,16.10
2022-10-22T02:20:28.759Z,16.00
2022-10-22T02:22:56.776Z,16.00
2022-10-22T02:25:27.549Z,16.00
2022-10-22T02:28:26.633Z,16.10
2022-10-22T02:30:56.917Z,16.10
2022-10-22T02:33:33.997Z,16.10
2022-10-22T02:36:02.563Z,16.10
2022-10-22T02:38:30.529Z,16.00
2022-10-22T02:40:57.639Z,16.00
2022-10-22T02:43:25.514Z,16.10
2022-10-22T02:45:52.461Z,16.10
2022-10-22T02:50:45.917Z,16.00
2022-10-22T02:53:12.665Z,16.00
2022-10-22T02:55:39.479Z,15.90
2022-10-22T02:58:06.233Z,15.80
2022-10-22T03:00:33.033Z,15.90
2022-10-22T03:02:59.867Z,15.90
2022-10-22T03:05:26.675Z,15.80
2022-10-22T03:07:53.430Z,15.80
2022-10-22T03:10:20.282Z,15.90
2022-10-22T03:12:47.109Z,15.80
2022-10-22T03:15:14.602Z,15.80
2022-10-22T03:17:41.897Z,15.90
2022-10-22T03:20:09.507Z,15.90
2022-10-22T03:22:38.798Z,15.90
2022-10-22T03:25:09.391Z,15.90
2022-10-22T03:27:37.910Z,15.90
2022-10-22T03:30:05.577Z,15.80
2022-10-22T03:32:32.740Z,15.80
2022-10-22T03:37:31.563Z,15.90
2022-10-22T03:39:58.410Z,15.80
2022-10-22T03:42:25.211Z,15.70
2022-10-22T03:44:52.374Z,15.80
2022-10-22T03:47:19.269Z,15.70
2022-10-22T03:49:46.055Z,15.60
2022-10-22T03:52:14.388Z,15.60
2022-10-22T03:54:42.273Z,15.60
2022-10-22T03:57:10.183Z,15.50
2022-10-22T03:59:43.048Z,15.60
2022-10-22T04:02:11.311Z,15.60
2022-10-22T04:04:38.663Z,15.60
2022-10-22T04:07:06.885Z,15.50
2022-10-22T04:09:34.570Z,15.50
2022-10-22T04:12:01.745Z,15.50
2022-10-22T04:14:28.612Z,15.50
2022-10-22T04:16:55.689Z,15.50
2022-10-22T04:19:22.604Z,15.60
2022-10-22T04:21:49.491Z,15.60
2022-10-22T04:24:16.297Z,15.60
2022-10-22T04:26:43.373Z,15.50
2022-10-22T04:29:13.563Z,15.50
2022-10-22T04:31:43.083Z,15.50
2022-10-22T04:34:09.877Z,15.50
2022-10-22T04:36:36.724Z,15.50
2022-10-22T04:39:04.888Z,15.60
2022-10-22T04:41:37.070Z,15.60
2022-10-22T04:44:04.674Z,15.60
2022-10-22T04:46:33.477Z,15.50
2022-10-22T04:49:00.349Z,15.50
2022-10-22T04:51:27.646Z,15.60
2022-10-22T04:53:54.932Z,15.60
2022-10-22T04:56:28.943Z,15.50
2022-10-22T04:59:01.381Z,15.50
2022-10-22T05:01:31.254Z,15.50
2022-10-22T05:04:00.313Z,15.60
2022-10-22T05:06:29.092Z,15.60
2022-10-22T05:08:59.163Z,15.60
2022-10-22T05:11:35.335Z,15.60
2022-10-22T05:14:04.922Z,15.60
2022-10-22T05:16:32.802Z,15.50
2022-10-22T05:19:01.256Z,15.50
2022-10-22T05:21:29.733Z,15.50
2022-10-22T05:23:59.638Z,15.50
2022-10-22T05:26:28.165Z,15.50
2022-10-22T05:28:55.314Z,15.40
2022-10-22T05:31:22.223Z,15.40
2022-10-22T05:33:49.098Z,15.40
2022-10-22T05:36:21.137Z,15.50
2022-10-22T05:38:48.365Z,15.50
2022-10-22T05:41:21.622Z,15.50
2022-10-22T05:43:49.138Z,15.40
2022-10-22T05:46:22.564Z,15.40
2022-10-22T05:48:55.498Z,15.40
2022-10-22T05:51:22.866Z,15.40
2022-10-22T05:53:53.808Z,15.40
2022-10-22T05:56:21.050Z,15.40
2022-10-22T05:58:47.957Z,15.50
2022-10-22T06:01:23.941Z,15.40
2022-10-22T06:03:54.952Z,15.50
2022-10-22T06:06:34.134Z,15.40
2022-10-22T06:09:26.656Z,15.40
2022-10-22T06:11:53.632Z,15.40
2022-10-22T06:14:21.061Z,15.40
2022-10-22T06:16:48.718Z,15.40
2022-10-22T06:19:17.438Z,15.40
2022-10-22T06:21:44.657Z,15.40
2022-10-22T06:24:12.461Z,15.50
2022-10-22T06:26:39.678Z,15.50
2022-10-22T06:29:06.827Z,15.50
2022-10-22T06:31:39.428Z,15.50
2022-10-22T06:34:08.480Z,15.50
2022-10-22T06:36:35.401Z,15.60
2022-10-22T06:39:03.295Z,15.60
2022-10-22T06:41:30.124Z,15.60
2022-10-22T06:43:57.946Z,15.60
2022-10-22T06:46:25.732Z,15.60
2022-10-22T06:48:55.413Z,15.60
2022-10-22T06:51:22.520Z,15.60
2022-10-22T06:53:49.815Z,15.70
2022-10-22T06:56:19.077Z,15.60
2022-10-22T06:58:50.409Z,15.70
2022-10-22T07:01:19.156Z,15.60
2022-10-22T07:03:46.428Z,15.70
2022-10-22T07:06:14.715Z,15.70
2022-10-22T07:08:42.695Z,15.80
2022-10-22T07:11:19.087Z,15.80
2022-10-22T07:13:46.649Z,15.90
2022-10-22T07:16:14.850Z,16.00
2022-10-22T07:18:42.439Z,15.90
2022-10-22T07:21:10.842Z,15.90
2022-10-22T07:23:37.680Z,15.90
2022-10-22T07:26:07.318Z,16.00
2022-10-22T07:28:39.886Z,16.10
2022-10-22T07:31:09.034Z,16.20
2022-10-22T07:33:36.841Z,16.20
2022-10-22T07:36:07.103Z,16.40
2022-10-22T07:38:34.837Z,16.40
2022-10-22T07:41:02.234Z,16.50
2022-10-22T07:43:29.092Z,16.50
2022-10-22T07:45:55.964Z,16.50
2022-10-22T07:48:24.096Z,16.50
2022-10-22T07:50:51.590Z,16.50
2022-10-22T07:53:18.909Z,16.60
2022-10-22T07:55:49.189Z,16.60
2022-10-22T07:58:17.114Z,16.70
2022-10-22T08:00:44.683Z,16.60
2022-10-22T08:03:12.175Z,16.70
2022-10-22T08:05:43.814Z,16.80
2022-10-22T08:08:12.133Z,16.90
2022-10-22T08:10:39.638Z,17.00
2022-10-22T08:13:07.058Z,17.00
2022-10-22T08:15:34.445Z,16.90
2022-10-22T08:18:01.317Z,17.10
2022-10-22T08:20:28.211Z,17.10
2022-10-22T08:22:55.082Z,17.10
2022-10-22T08:25:21.905Z,17.20
2022-10-22T08:27:48.768Z,17.40
2022-10-22T08:30:16.278Z,17.40
2022-10-22T08:32:43.163Z,17.50
2022-10-22T08:35:12.000Z,17.50
2022-10-22T08:37:41.256Z,17.60
2022-10-22T08:40:09.966Z,17.70
2022-10-22T08:42:59.380Z,17.90
2022-10-22T08:45:59.491Z,18.00
2022-10-22T08:48:34.847Z,18.00
2022-10-22T08:51:01.644Z,18.20
2022-10-22T08:53:41.601Z,18.20
2022-10-22T08:56:08.415Z,18.30
2022-10-22T08:58:44.047Z,18.20
2022-10-22T09:01:18.045Z,18.10
2022-10-22T09:04:12.638Z,18.20
2022-10-22T09:06:41.696Z,18.40
2022-10-22T09:09:15.452Z,18.50
2022-10-22T09:11:45.927Z,18.30
2022-10-22T09:16:51.194Z,18.50
2022-10-22T09:19:34.274Z,18.40
2022-10-22T09:22:24.507Z,18.40
2022-10-22T09:25:13.994Z,18.40
2022-10-22T09:27:41.218Z,18.50
2022-10-22T09:30:17.043Z,18.60
2022-10-22T09:32:44.264Z,18.60
2022-10-22T09:35:13.404Z,18.30
2022-10-22T09:37:53.857Z,18.40
2022-10-22T09:40:22.245Z,18.40
2022-10-22T09:42:49.596Z,18.20
2022-10-22T09:45:21.055Z,18.40
2022-10-22T09:48:01.560Z,18.40
2022-10-22T09:50:39.408Z,18.50
2022-10-22T09:53:17.123Z,18.70
2022-10-22T09:55:45.134Z,18.80
2022-10-22T09:58:14.055Z,18.60
2022-10-22T10:00:44.633Z,18.60
2022-10-22T10:03:24.113Z,18.80
2022-10-22T10:06:00.166Z,19.00
2022-10-22T10:08:30.118Z,19.00
2022-10-22T10:11:06.656Z,18.90
2022-10-22T10:13:46.166Z,19.10
2022-10-22T10:16:39.352Z,19.20
2022-10-22T10:19:17.900Z,19.10
2022-10-22T10:22:09.286Z,19.20
2022-10-22T10:24:52.952Z,19.30
2022-10-22T10:27:32.590Z,19.40
2022-10-22T10:30:18.075Z,19.50
2022-10-22T10:32:58.141Z,19.40
2022-10-22T10:35:55.080Z,19.40
2022-10-22T10:38:50.531Z,19.40
2022-10-22T10:41:35.463Z,19.80
2022-10-22T10:44:14.509Z,20.00
2022-10-22T10:47:00.067Z,20.10
2022-10-22T10:49:32.532Z,19.80
2022-10-22T10:52:17.388Z,20.00
2022-10-22T10:54:54.172Z,20.10
2022-10-22T10:57:23.691Z,20.10
2022-10-22T11:00:20.447Z,20.20
2022-10-22T11:03:08.787Z,20.30
2022-10-22T11:05:56.621Z,20.60
2022-10-22T11:08:50.045Z,20.90
2022-10-22T11:11:18.342Z,21.10
2022-10-22T11:13:51.047Z,21.30
2022-10-22T11:16:20.503Z,21.20
2022-10-22T11:19:15.364Z,21.20
2022-10-22T11:21:55.360Z,21.40
2022-10-22T11:24:30.640Z,21.40
2022-10-22T11:27:21.100Z,21.50
2022-10-22T11:29:50.480Z,21.90
2022-10-22T11:32:22.185Z,22.10
2022-10-22T11:34:50.795Z,22.30
2022-10-22T11:37:17.766Z,22.20
2022-10-22T11:40:02.906Z,22.30
2022-10-22T11:42:34.567Z,22.50
2022-10-22T11:45:03.346Z,22.70
2022-10-22T11:47:34.503Z,22.30
2022-10-22T11:50:20.196Z,22.00
2022-10-22T11:53:03.908Z,22.10
2022-10-22T11:56:08.208Z,22.40
2022-10-22T11:58:44.958Z,22.40
2022-10-22T12:01:11.671Z,22.40
2022-10-22T12:03:41.225Z,22.60
2022-10-22T12:06:18.328Z,22.60
2022-10-22T12:08:45.038Z,22.70
2022-10-22T12:11:11.823Z,22.60
2022-10-22T12:13:58.732Z,22.40
2022-10-22T12:17:00.966Z,22.70
2022-10-22T12:19:30.099Z,23.10
2022-10-22T12:22:02.392Z,22.90
2022-10-22T12:24:31.300Z,23.00
2022-10-22T12:26:58.129Z,23.20
2022-10-22T12:29:26.605Z,23.40
2022-10-22T12:31:53.988Z,23.20
2022-10-22T12:34:24.600Z,23.20
2022-10-22T12:36:52.253Z,23.50
2022-10-22T12:39:22.827Z,23.10
2022-10-22T12:41:49.517Z,23.10
2022-10-22T12:44:17.453Z,23.30
2022-10-22T12:46:45.571Z,23.10
2022-10-22T12:49:20.258Z,23.50
2022-10-22T12:51:47.557Z,23.70
2022-10-22T12:54:19.897Z,24.10
2022-10-22T12:56:47.698Z,24.10
2022-10-22T12:59:18.001Z,24.10
2022-10-22T13:01:44.740Z,24.30
2022-10-22T13:04:17.216Z,24.10
2022-10-22T13:06:44.814Z,24.20
2022-10-22T13:09:22.547Z,24.40
2022-10-22T13:12:19.802Z,24.20
2022-10-22T13:14:46.676Z,24.10
2022-10-22T13:17:20.602Z,24.30
2022-10-22T13:19:50.089Z,24.50
2022-10-22T13:22:25.973Z,23.70
2022-10-22T13:24:52.846Z,23.50
2022-10-22T13:27:19.913Z,23.60
2022-10-22T13:29:46.693Z,23.70
2022-10-22T13:32:27.600Z,23.90
2022-10-22T13:34:55.032Z,23.90
2022-10-22T13:37:21.740Z,24.00
2022-10-22T13:39:48.486Z,23.90
2022-10-22T13:42:15.151Z,23.80
2022-10-22T13:44:44.634Z,23.70
2022-10-22T13:47:22.247Z,23.70
2022-10-22T13:49:48.994Z,23.70
2022-10-22T13:52:21.955Z,23.30
2022-10-22T13:54:48.656Z,22.80
